createdAt,value
2023-03-02T00:01:46.222Z,1.50
2023-03-02T00:04:25.503Z,1.90
2023-03-02T00:06:55.123Z,1.10
2023-03-02T00:09:21.879Z,1.35
2023-03-02T00:11:48.710Z,1.30
2023-03-02T00:14:15.437Z,1.47
2023-03-02T00:16:42.232Z,1.83
2023-03-02T00:19:08.979Z,1.70
2023-03-02T00:21:35.732Z,1.92
2023-03-02T00:24:02.639Z,1.13
2023-03-02T00:26:32.736Z,1.25
2023-03-02T00:28:59.619Z,1.73
2023-03-02T00:31:26.466Z,1.33
2023-03-02T00:33:56.547Z,1.40
2023-03-02T00:36:23.926Z,1.50
2023-03-02T00:38:57.440Z,1.88
2023-03-02T00:41:24.384Z,0.93
2023-03-02T00:43:51.604Z,1.92
2023-03-02T00:46:24.388Z,1.83
2023-03-02T00:48:51.918Z,1.33
2023-03-02T00:51:18.974Z,1.58
2023-03-02T00:53:46.058Z,2.03
2023-03-02T00:56:12.956Z,1.77
2023-03-02T00:58:40.430Z,1.40
2023-03-02T01:01:11.073Z,0.80
2023-03-02T01:03:38.144Z,1.10
2023-03-02T01:06:05.611Z,1.00
2023-03-02T01:08:32.388Z,1.38
2023-03-02T01:11:01.743Z,1.63
2023-03-02T01:13:29.391Z,1.80
2023-03-02T01:16:03.726Z,2.47
2023-03-02T01:18:30.698Z,1.38
2023-03-02T01:21:04.926Z,1.20
2023-03-02T01:23:31.666Z,2.35
2023-03-02T01:25:58.502Z,1.40
2023-03-02T01:28:25.306Z,1.55
2023-03-02T01:30:52.088Z,1.35
2023-03-02T01:33:19.843Z,1.38
2023-03-02T01:35:48.459Z,1.67
2023-03-02T01:38:15.824Z,1.40
2023-03-02T01:44:37.474Z,1.05
2023-03-02T01:47:33.868Z,1.30
2023-03-02T01:50:06.192Z,1.33
2023-03-02T01:52:35.216Z,1.92
2023-03-02T01:55:05.194Z,1.40
2023-03-02T01:57:43.393Z,1.17
2023-03-02T02:00:13.947Z,1.83
2023-03-02T02:02:42.024Z,1.35
2023-03-02T02:05:11.591Z,1.80
2023-03-02T02:07:39.157Z,2.20
2023-03-02T02:10:06.742Z,1.00
2023-03-02T02:12:33.718Z,1.58
2023-03-02T02:15:01.376Z,1.50
2023-03-02T02:17:34.623Z,1.40
2023-03-02T02:20:36.878Z,1.17
2023-03-02T02:23:21.942Z,1.50
2023-03-02T02:26:01.857Z,2.20
2023-03-02T02:28:37.361Z,1.70
2023-03-02T02:31:10.881Z,1.48
2023-03-02T02:33:38.913Z,1.33
2023-03-02T02:36:14.858Z,1.48
2023-03-02T02:38:42.502Z,1.63
2023-03-02T02:41:22.647Z,1.63
2023-03-02T02:43:50.167Z,1.42
2023-03-02T02:46:17.363Z,1.63
2023-03-02T02:48:44.106Z,1.53
2023-03-02T02:51:16.448Z,1.47
2023-03-02T02:53:49.576Z,2.25
2023-03-02T02:56:18.578Z,1.38
2023-03-02T02:58:49.607Z,1.23
2023-03-02T03:01:19.224Z,1.15
2023-03-02T03:04:04.301Z,1.70
2023-03-02T03:06:38.451Z,1.45
2023-03-02T03:09:07.078Z,1.38
2023-03-02T03:11:41.408Z,2.03
2023-03-02T03:14:12.201Z,1.58
2023-03-02T03:16:41.503Z,1.42
2023-03-02T03:19:24.502Z,0.93
2023-03-02T03:21:54.381Z,1.58
2023-03-02T03:24:22.293Z,1.55
2023-03-02T03:26:49.452Z,1.23
2023-03-02T03:29:17.652Z,2.15
2023-03-02T03:31:45.174Z,1.58
2023-03-02T03:34:12.220Z,1.50
2023-03-02T03:36:38.968Z,1.50
2023-03-02T03:39:06.524Z,1.20
2023-03-02T03:41:33.738Z,1.70
2023-03-02T03:44:00.515Z,0.90
2023-03-02T03:46:29.820Z,0.80
2023-03-02T03:48:57.152Z,1.30
2023-03-02T03:51:24.469Z,1.30
2023-03-02T03:53:59.878Z,0.82
2023-03-02T03:56:31.087Z,1.10
2023-03-02T03:59:07.141Z,1.85
2023-03-02T04:02:01.491Z,1.42
2023-03-02T04:04:31.102Z,1.92
2023-03-02T04:06:58.172Z,1.65
2023-03-02T04:09:25.265Z,1.40
2023-03-02T04:11:54.409Z,1.17
2023-03-02T04:14:25.332Z,1.20
2023-03-02T04:16:54.679Z,1.65
2023-03-02T04:19:22.072Z,0.95
2023-03-02T04:21:53.118Z,1.00
2023-03-02T04:24:22.398Z,1.80
2023-03-02T04:26:50.355Z,2.05
2023-03-02T04:29:18.207Z,1.25
2023-03-02T04:31:45.015Z,1.50
2023-03-02T04:34:12.005Z,1.40
2023-03-02T04:36:40.473Z,1.33
2023-03-02T04:39:08.288Z,1.13
2023-03-02T04:41:38.523Z,2.53
2023-03-02T04:44:05.356Z,1.83
2023-03-02T04:46:34.456Z,1.52
2023-03-02T04:49:01.567Z,1.40
2023-03-02T04:51:38.154Z,1.20
2023-03-02T04:54:08.219Z,1.27
2023-03-02T04:56:35.464Z,1.50
2023-03-02T04:59:05.157Z,1.92
2023-03-02T05:01:34.235Z,1.20
2023-03-02T05:04:04.524Z,2.37
2023-03-02T05:06:31.520Z,1.23
2023-03-02T05:09:00.199Z,1.25
2023-03-02T05:11:27.746Z,1.35
2023-03-02T05:14:00.164Z,1.70
2023-03-02T05:16:29.324Z,1.50
2023-03-02T05:18:56.607Z,1.45
2023-03-02T05:21:23.586Z,1.10
2023-03-02T05:23:50.403Z,1.30
2023-03-02T05:26:17.797Z,1.00
2023-03-02T05:28:45.855Z,1.13
2023-03-02T05:31:21.550Z,1.23
2023-03-02T05:33:48.278Z,1.10
2023-03-02T05:36:17.153Z,1.55
2023-03-02T05:38:45.965Z,1.20
2023-03-02T05:41:15.577Z,1.42
2023-03-02T05:43:42.306Z,1.38
2023-03-02T05:46:10.864Z,1.10
2023-03-02T05:48:37.810Z,1.20
2023-03-02T05:51:04.980Z,1.30
2023-03-02T05:53:31.723Z,1.42
2023-03-02T05:55:58.557Z,0.98
2023-03-02T05:58:25.248Z,1.10
2023-03-02T06:00:52.266Z,1.20
2023-03-02T06:03:19.692Z,1.48
2023-03-02T06:05:50.979Z,1.17
2023-03-02T06:08:19.020Z,1.45
2023-03-02T06:10:45.989Z,1.67
2023-03-02T06:13:12.733Z,1.33
2023-03-02T06:15:40.625Z,1.58
2023-03-02T06:18:07.414Z,1.70
2023-03-02T06:20:34.196Z,0.95
2023-03-02T06:23:00.919Z,1.27
2023-03-02T06:25:27.785Z,1.48
2023-03-02T06:27:54.616Z,1.40
2023-03-02T06:30:23.723Z,1.67
2023-03-02T06:32:50.794Z,1.10
2023-03-02T06:35:18.126Z,1.42
2023-03-02T06:37:45.027Z,1.42
2023-03-02T06:40:13.842Z,2.10
2023-03-02T06:42:42.078Z,1.33
2023-03-02T06:45:09.848Z,1.40
2023-03-02T06:47:37.004Z,1.17
2023-03-02T06:50:04.337Z,1.48
2023-03-02T06:52:37.130Z,1.42
2023-03-02T06:55:04.485Z,1.52
2023-03-02T06:57:36.212Z,2.15
2023-03-02T07:00:25.907Z,1.15
2023-03-02T07:02:53.064Z,1.52
2023-03-02T07:05:20.182Z,1.30
2023-03-02T07:07:46.897Z,1.35
2023-03-02T07:10:13.838Z,1.48
2023-03-02T07:12:41.728Z,1.77
2023-03-02T07:15:11.438Z,1.30
2023-03-02T07:17:39.153Z,1.13
2023-03-02T07:20:06.781Z,2.35
2023-03-02T07:22:35.924Z,2.05
2023-03-02T07:25:02.724Z,1.38
2023-03-02T07:27:29.500Z,1.08
2023-03-02T07:29:56.160Z,1.42
2023-03-02T07:32:25.020Z,1.23
2023-03-02T07:34:52.095Z,1.38
2023-03-02T07:37:18.918Z,1.35
2023-03-02T07:39:49.286Z,1.60
2023-03-02T07:42:18.933Z,1.73
2023-03-02T07:44:45.656Z,1.42
2023-03-02T07:47:12.472Z,1.10
2023-03-02T07:49:39.218Z,1.80
2023-03-02T07:52:06.168Z,1.20
2023-03-02T07:54:33.021Z,1.70
2023-03-02T07:57:00.101Z,1.97
2023-03-02T07:59:28.404Z,1.10
2023-03-02T08:01:58.671Z,1.63
2023-03-02T08:04:25.866Z,1.50
2023-03-02T08:06:52.717Z,1.40
2023-03-02T08:09:19.511Z,1.67
2023-03-02T08:11:47.799Z,1.58
2023-03-02T08:14:14.824Z,1.67
2023-03-02T08:16:41.683Z,2.15
2023-03-02T08:19:08.860Z,1.50
2023-03-02T08:21:35.727Z,1.50
2023-03-02T08:24:03.103Z,1.77
2023-03-02T08:26:30.223Z,1.83
2023-03-02T08:28:56.964Z,1.80
2023-03-02T08:31:23.708Z,1.88
2023-03-02T08:33:50.684Z,1.70
2023-03-02T08:36:19.165Z,2.47
2023-03-02T08:38:47.652Z,1.73
2023-03-02T08:41:17.525Z,2.03
2023-03-02T08:43:44.564Z,1.67
2023-03-02T08:46:13.381Z,2.20
2023-03-02T08:48:40.529Z,2.10
2023-03-02T08:51:10.675Z,1.60
2023-03-02T08:53:40.252Z,1.73
2023-03-02T08:56:32.751Z,1.27
2023-03-02T08:59:03.478Z,2.13
2023-03-02T09:01:34.500Z,1.90
2023-03-02T09:04:02.409Z,2.33
2023-03-02T09:06:31.066Z,1.60
2023-03-02T09:08:58.047Z,2.00
2023-03-02T09:11:25.266Z,2.10
2023-03-02T09:13:52.075Z,2.05
2023-03-02T09:16:20.341Z,2.50
2023-03-02T09:18:47.786Z,2.00
2023-03-02T09:21:14.461Z,2.05
2023-03-02T09:23:41.334Z,1.60
2023-03-02T09:26:08.271Z,1.52
2023-03-02T09:28:36.170Z,2.25
2023-03-02T09:31:05.264Z,1.63
2023-03-02T09:33:32.173Z,2.03
2023-03-02T09:36:00.067Z,2.10
2023-03-02T09:38:26.795Z,2.15
2023-03-02T09:41:31.524Z,2.20
2023-03-02T09:44:26.068Z,2.53
2023-03-02T09:47:00.993Z,2.15
2023-03-02T09:49:47.133Z,1.92
2023-03-02T09:52:35.165Z,2.03
2023-03-02T09:55:15.675Z,1.90
2023-03-02T09:57:43.843Z,2.55
2023-03-02T10:00:20.420Z,2.20
2023-03-02T10:03:02.416Z,2.22
2023-03-02T10:05:42.561Z,1.90
2023-03-02T10:08:25.950Z,2.50
2023-03-02T10:11:17.822Z,2.15
2023-03-02T10:14:08.684Z,2.10
2023-03-02T10:16:41.422Z,2.77
2023-03-02T10:19:13.873Z,2.33
2023-03-02T10:21:41.789Z,2.00
2023-03-02T10:24:15.234Z,2.03
2023-03-02T10:26:48.288Z,1.80
2023-03-02T10:29:32.678Z,2.13
2023-03-02T10:32:10.548Z,2.65
2023-03-02T10:34:38.633Z,2.35
2023-03-02T10:37:15.642Z,2.72
2023-03-02T10:39:42.641Z,2.70
2023-03-02T10:42:18.707Z,2.15
2023-03-02T10:44:51.083Z,1.92
2023-03-02T10:47:29.109Z,2.40
2023-03-02T10:49:57.477Z,2.30
2023-03-02T10:52:25.851Z,1.90
2023-03-02T10:55:03.655Z,2.22
2023-03-02T10:57:35.114Z,1.67
2023-03-02T11:00:05.920Z,2.83
2023-03-02T11:02:37.395Z,2.33
2023-03-02T11:05:22.185Z,2.42
2023-03-02T11:07:53.777Z,2.20
2023-03-02T11:10:23.544Z,2.58
2023-03-02T11:12:52.072Z,2.50
2023-03-02T11:15:25.796Z,2.60
2023-03-02T11:18:12.592Z,2.33
2023-03-02T11:20:49.664Z,2.35
2023-03-02T11:23:38.416Z,2.45
2023-03-02T11:26:18.871Z,2.97
2023-03-02T11:28:54.616Z,2.60
2023-03-02T11:31:29.124Z,2.40
2023-03-02T11:34:17.673Z,2.78
2023-03-02T11:36:49.536Z,2.42
2023-03-02T11:39:21.323Z,2.55
2023-03-02T11:41:48.698Z,2.80
2023-03-02T11:44:20.244Z,3.40
2023-03-02T11:46:52.184Z,2.60
2023-03-02T11:49:25.428Z,2.28
2023-03-02T11:52:02.013Z,2.20
2023-03-02T11:54:36.700Z,2.13
2023-03-02T11:57:04.438Z,2.42
2023-03-02T11:59:32.222Z,1.97
2023-03-02T12:02:00.591Z,2.03
2023-03-02T12:04:35.898Z,2.53
2023-03-02T12:07:05.158Z,2.08
2023-03-02T12:09:37.096Z,2.17
2023-03-02T12:12:24.965Z,2.08
2023-03-02T12:14:52.451Z,2.28
2023-03-02T12:17:22.349Z,1.85
2023-03-02T12:19:50.908Z,2.00
2023-03-02T12:22:26.771Z,2.35
2023-03-02T12:25:00.500Z,2.25
2023-03-02T12:27:28.211Z,2.50
2023-03-02T12:30:09.864Z,2.67
2023-03-02T12:32:37.169Z,2.17
2023-03-02T12:35:12.382Z,2.63
2023-03-02T12:37:51.321Z,2.35
2023-03-02T12:40:36.395Z,2.20
2023-03-02T12:43:22.067Z,1.95
2023-03-02T12:46:08.219Z,3.22
2023-03-02T12:48:49.166Z,2.60
2023-03-02T12:51:24.585Z,1.88
2023-03-02T12:54:02.769Z,2.13
2023-03-02T12:56:29.892Z,2.30
2023-03-02T12:58:57.056Z,3.15
2023-03-02T13:01:26.128Z,2.60
2023-03-02T13:03:53.603Z,1.90
2023-03-02T13:06:23.048Z,2.13
2023-03-02T13:08:55.115Z,1.90
2023-03-02T13:11:28.068Z,2.13
2023-03-02T13:13:55.919Z,1.85
2023-03-02T13:16:28.303Z,2.20
2023-03-02T13:18:57.221Z,1.77
2023-03-02T13:21:32.689Z,2.10
2023-03-02T13:23:59.874Z,1.87
2023-03-02T13:26:30.116Z,1.90
2023-03-02T13:29:19.403Z,2.10
2023-03-02T13:31:47.119Z,1.70
2023-03-02T13:34:33.511Z,1.75
2023-03-02T13:37:01.350Z,2.08
2023-03-02T13:39:30.000Z,1.98
2023-03-02T13:41:58.252Z,1.75
2023-03-02T13:44:29.742Z,1.75
2023-03-02T13:46:57.351Z,2.03
2023-03-02T13:49:27.791Z,1.88
2023-03-02T13:51:58.807Z,2.00
2023-03-02T13:54:28.104Z,1.88
2023-03-02T13:56:57.361Z,1.77
2023-03-02T13:59:27.741Z,1.95
2023-03-02T14:01:54.847Z,2.20
2023-03-02T14:04:25.621Z,1.65
2023-03-02T14:06:53.384Z,1.93
2023-03-02T14:09:21.214Z,1.90
2023-03-02T14:11:51.628Z,2.17
2023-03-02T14:14:22.690Z,2.15
2023-03-02T14:16:50.471Z,1.87
2023-03-02T14:19:18.529Z,1.52
2023-03-02T14:21:46.489Z,2.10
2023-03-02T14:24:13.712Z,1.92
2023-03-02T14:26:46.258Z,1.87
2023-03-02T14:29:23.287Z,2.50
2023-03-02T14:31:50.704Z,2.03
2023-03-02T14:34:18.124Z,1.95
2023-03-02T14:36:46.814Z,2.08
2023-03-02T14:39:37.023Z,2.20
2023-03-02T14:42:05.003Z,2.30
2023-03-02T14:44:32.166Z,1.85
2023-03-02T14:46:59.355Z,1.70
2023-03-02T14:49:26.698Z,2.20
2023-03-02T14:51:59.832Z,2.38
2023-03-02T14:54:27.288Z,1.88
2023-03-02T14:56:56.675Z,1.95
2023-03-02T14:59:23.759Z,1.88
2023-03-02T15:01:50.601Z,2.28
2023-03-02T15:04:17.340Z,1.90
2023-03-02T15:06:44.167Z,2.15
2023-03-02T15:09:10.939Z,1.83
2023-03-02T15:11:37.723Z,2.50
2023-03-02T15:14:04.441Z,1.98
2023-03-02T15:16:31.197Z,2.33
2023-03-02T15:18:59.001Z,2.38
2023-03-02T15:21:26.116Z,1.90
2023-03-02T15:23:53.140Z,1.88
2023-03-02T15:26:19.861Z,2.22
2023-03-02T15:28:50.684Z,2.70
2023-03-02T15:31:21.218Z,1.98
2023-03-02T15:33:47.968Z,1.87
2023-03-02T15:36:14.722Z,2.25
2023-03-02T15:38:43.820Z,2.67
2023-03-02T15:41:14.793Z,2.30
2023-03-02T15:43:41.810Z,2.30
2023-03-02T15:46:09.493Z,2.15
2023-03-02T15:48:37.147Z,1.77
2023-03-02T15:51:08.489Z,2.08
2023-03-02T15:53:38.074Z,2.08
2023-03-02T15:56:06.647Z,1.98
2023-03-02T15:58:34.563Z,1.75
2023-03-02T16:01:06.577Z,1.55
2023-03-02T16:03:34.143Z,1.70
2023-03-02T16:06:00.891Z,1.60
2023-03-02T16:08:27.627Z,3.63
2023-03-02T16:10:59.373Z,1.88
2023-03-02T16:13:32.742Z,2.17
2023-03-02T16:16:04.507Z,2.10
2023-03-02T16:18:31.564Z,1.63
2023-03-02T16:20:58.707Z,1.77
2023-03-02T16:23:25.914Z,2.00
2023-03-02T16:25:53.165Z,1.97
2023-03-02T16:28:23.237Z,1.80
2023-03-02T16:30:51.227Z,2.00
2023-03-02T16:33:19.049Z,1.90
2023-03-02T16:35:45.858Z,2.22
2023-03-02T16:38:12.583Z,1.80
2023-03-02T16:40:40.158Z,2.45
2023-03-02T16:43:10.480Z,2.25
2023-03-02T16:45:39.848Z,2.10
2023-03-02T16:48:06.960Z,2.13
2023-03-02T16:50:33.724Z,2.15
2023-03-02T16:53:00.486Z,2.13
2023-03-02T16:55:34.677Z,1.90
2023-03-02T16:58:03.656Z,2.05
2023-03-02T17:00:31.262Z,1.73
2023-03-02T17:02:57.952Z,1.85
2023-03-02T17:05:24.563Z,1.73
2023-03-02T17:07:51.241Z,2.05
2023-03-02T17:10:22.111Z,1.67
2023-03-02T17:12:48.792Z,1.40
2023-03-02T17:15:18.754Z,1.73
2023-03-02T17:17:45.485Z,1.77
2023-03-02T17:20:13.706Z,2.08
2023-03-02T17:22:40.887Z,4.55
2023-03-02T17:25:08.899Z,3.17
2023-03-02T17:27:35.575Z,1.80
2023-03-02T17:30:02.321Z,2.10
2023-03-02T17:32:32.212Z,2.65
2023-03-02T17:34:59.060Z,1.73
2023-03-02T17:37:26.016Z,2.22
2023-03-02T17:39:55.789Z,1.90
2023-03-02T17:42:22.428Z,1.40
2023-03-02T17:44:49.097Z,1.13
2023-03-02T17:47:16.644Z,0.68
2023-03-02T17:49:46.164Z,1.17
2023-03-02T17:52:14.267Z,1.20
2023-03-02T17:54:41.659Z,1.25
2023-03-02T17:57:09.194Z,1.20
2023-03-02T17:59:36.088Z,1.05
2023-03-02T18:02:03.746Z,1.45
2023-03-02T18:04:30.461Z,1.10
2023-03-02T18:06:57.176Z,0.93
2023-03-02T18:09:23.895Z,0.88
2023-03-02T18:11:50.586Z,2.45
2023-03-02T18:14:20.070Z,1.40
2023-03-02T18:16:47.285Z,1.43
2023-03-02T18:19:14.055Z,1.00
2023-03-02T18:21:41.765Z,1.67
2023-03-02T18:24:09.373Z,1.10
2023-03-02T18:26:36.307Z,1.05
2023-03-02T18:29:03.579Z,0.80
2023-03-02T18:31:31.409Z,1.88
2023-03-02T18:33:59.032Z,1.20
2023-03-02T18:36:25.977Z,1.00
2023-03-02T18:38:55.814Z,1.05
2023-03-02T18:41:24.061Z,1.27
2023-03-02T18:43:53.431Z,1.05
2023-03-02T18:46:23.649Z,1.40
2023-03-02T18:48:51.509Z,0.70
2023-03-02T18:51:19.525Z,1.23
2023-03-02T18:53:47.240Z,0.70
2023-03-02T18:56:14.052Z,0.90
2023-03-02T18:58:41.383Z,1.30
2023-03-02T19:01:08.370Z,1.20
2023-03-02T19:03:37.108Z,0.85
2023-03-02T19:06:05.172Z,1.55
2023-03-02T19:08:32.121Z,1.08
2023-03-02T19:10:58.848Z,0.88
2023-03-02T19:13:25.620Z,1.23
2023-03-02T19:15:54.820Z,1.00
2023-03-02T19:18:25.553Z,1.00
2023-03-02T19:20:54.332Z,1.15
2023-03-02T19:23:21.498Z,1.10
2023-03-02T19:25:48.741Z,0.80
2023-03-02T19:28:17.808Z,0.80
2023-03-02T19:30:44.665Z,1.05
2023-03-02T19:33:13.371Z,1.70
2023-03-02T19:35:43.618Z,1.00
2023-03-02T19:38:10.524Z,1.33
2023-03-02T19:40:37.808Z,1.70
2023-03-02T19:43:07.759Z,1.00
2023-03-02T19:45:35.752Z,1.13
2023-03-02T19:48:03.769Z,1.70
2023-03-02T19:50:30.832Z,1.70
2023-03-02T19:52:57.785Z,1.00
2023-03-02T19:55:27.817Z,0.88
2023-03-02T19:58:00.120Z,0.97
2023-03-02T20:00:30.010Z,1.30
2023-03-02T20:02:57.875Z,0.98
2023-03-02T20:05:27.231Z,0.95
2023-03-02T20:07:54.795Z,0.80
2023-03-02T20:10:31.606Z,0.90
2023-03-02T20:12:59.797Z,0.90
2023-03-02T20:15:28.091Z,0.60
2023-03-02T20:17:59.352Z,1.50
2023-03-02T20:20:26.972Z,1.00
2023-03-02T20:22:53.839Z,1.45
2023-03-02T20:25:21.595Z,1.20
2023-03-02T20:27:53.991Z,1.10
2023-03-02T20:30:47.402Z,0.80
2023-03-02T20:33:15.667Z,1.10
2023-03-02T20:35:44.935Z,1.17
2023-03-02T20:38:26.292Z,0.95
2023-03-02T20:40:59.632Z,1.35
2023-03-02T20:43:27.007Z,0.68
2023-03-02T20:45:54.522Z,1.30
2023-03-02T20:48:22.309Z,1.00
2023-03-02T20:50:52.511Z,1.00
2023-03-02T20:53:20.118Z,0.70
2023-03-02T20:55:50.047Z,1.08
2023-03-02T20:58:16.835Z,0.80
2023-03-02T21:00:46.240Z,1.00
2023-03-02T21:03:15.357Z,1.50
2023-03-02T21:05:42.780Z,1.00
2023-03-02T21:08:14.764Z,0.80
2023-03-02T21:10:43.094Z,1.48
2023-03-02T21:13:11.801Z,0.95
2023-03-02T21:15:39.050Z,1.07
2023-03-02T21:18:05.883Z,0.73
2023-03-02T21:20:36.044Z,0.93
2023-03-02T21:23:03.934Z,1.10
2023-03-02T21:25:31.035Z,1.38
2023-03-02T21:27:58.346Z,0.55
2023-03-02T21:30:28.363Z,1.10
2023-03-02T21:32:55.662Z,1.10
2023-03-02T21:35:25.974Z,0.70
2023-03-02T21:37:56.394Z,0.90
2023-03-02T21:40:27.102Z,1.27
2023-03-02T21:42:54.382Z,0.80
2023-03-02T21:45:24.876Z,0.98
2023-03-02T21:47:51.785Z,1.20
2023-03-02T21:50:24.366Z,0.98
2023-03-02T21:52:51.181Z,1.40
2023-03-02T21:55:17.859Z,1.58
2023-03-02T21:57:45.097Z,0.90
2023-03-02T22:00:32.753Z,1.42
2023-03-02T22:03:00.241Z,1.47
2023-03-02T22:05:27.782Z,1.15
2023-03-02T22:08:00.789Z,0.95
2023-03-02T22:10:38.037Z,1.00
2023-03-02T22:13:15.678Z,1.38
2023-03-02T22:15:42.332Z,1.23
2023-03-02T22:18:21.174Z,1.27
2023-03-02T22:20:51.341Z,0.98
2023-03-02T22:23:21.101Z,1.27
2023-03-02T22:25:51.244Z,1.38
2023-03-02T22:28:19.091Z,1.23
2023-03-02T22:30:50.939Z,1.20
2023-03-02T22:33:26.396Z,0.77
2023-03-02T22:35:59.099Z,1.08
2023-03-02T22:38:30.846Z,0.90
2023-03-02T22:40:59.439Z,1.55
2023-03-02T22:43:34.897Z,1.08
2023-03-02T22:46:09.675Z,0.80
2023-03-02T22:48:37.597Z,1.33
2023-03-02T22:51:31.126Z,0.90
2023-03-02T22:54:00.052Z,1.60
2023-03-02T22:56:42.918Z,1.50
2023-03-02T22:59:26.529Z,1.20
2023-03-02T23:02:01.415Z,1.45
2023-03-02T23:04:35.550Z,1.00
2023-03-02T23:07:11.339Z,1.20
2023-03-02T23:09:38.758Z,1.58
2023-03-02T23:12:21.795Z,1.33
2023-03-02T23:14:52.072Z,1.02
2023-03-02T23:17:26.391Z,1.00
2023-03-02T23:19:53.438Z,1.00
2023-03-02T23:22:20.215Z,1.13
2023-03-02T23:24:47.130Z,1.45
2023-03-02T23:27:16.189Z,0.95
2023-03-02T23:29:42.894Z,1.60
2023-03-02T23:32:09.850Z,1.20
2023-03-02T23:34:36.649Z,0.90
2023-03-02T23:37:03.589Z,1.30
2023-03-02T23:39:33.440Z,1.52
2023-03-02T23:42:00.300Z,1.00
2023-03-02T23:44:27.046Z,1.10
2023-03-02T23:46:53.715Z,1.10
2023-03-02T23:49:21.418Z,0.95
2023-03-02T23:51:51.134Z,1.10
2023-03-02T23:54:20.677Z,1.30
2023-03-02T23:56:47.502Z,1.23
2023-03-02T23:59:14.253Z,1.53
